Time;durP1;ratioP1;P1;durP2;ratioP2;P2;SDS_P1;SDS_P2;PMS_P1;PMS_P2;Temp;Humidity;BMP_temperature;BMP_pressure;BME280_temperature;BME280_humidity;BME280_pressure;Samples;Min_cycle;Max_cycle;Signal;HPM_P1;HPM_P2
2021/01/01 00:01:29;;;;;;;41.47;23.42;;;2.40;64.50;;;;;;5080635;28;20024;-78
2021/01/01 00:03:55;;;;;;;33.85;19.02;;;2.40;64.40;;;;;;5085280;28;20026;-82
2021/01/01 00:06:21;;;;;;;41.05;23.60;;;2.40;64.30;;;;;;5076773;28;20044;-82
2021/01/01 00:08:46;;;;;;;48.88;27.30;;;2.40;64.20;;;;;;5075662;28;20020;-79
2021/01/01 00:11:16;;;;;;;40.88;22.80;;;2.40;64.20;;;;;;5075822;28;20030;-81
2021/01/01 00:13:42;;;;;;;36.00;20.45;;;2.40;64.10;;;;;;5075467;28;20025;-79
2021/01/01 00:16:14;;;;;;;44.85;25.45;;;2.40;64.00;;;;;;5074031;28;20029;-82
2021/01/01 00:18:40;;;;;;;54.03;27.42;;;2.40;64.00;;;;;;5075574;28;20044;-80
2021/01/01 00:21:07;;;;;;;47.38;25.98;;;2.40;64.10;;;;;;5075134;28;20130;-82
2021/01/01 00:23:33;;;;;;;45.05;24.45;;;2.40;64.20;;;;;;5075156;28;20059;-81
2021/01/01 00:25:58;;;;;;;44.95;22.45;;;2.40;64.30;;;;;;5074985;28;20024;-78
2021/01/01 00:28:25;;;;;;;41.75;22.55;;;2.40;64.20;;;;;;5074622;28;20021;-84
2021/01/01 00:30:50;;;;;;;55.33;30.58;;;2.40;64.10;;;;;;5075370;28;20025;-81
2021/01/01 00:33:16;;;;;;;56.83;29.98;;;2.40;64.10;;;;;;5067720;28;20028;-79
2021/01/01 00:35:42;;;;;;;45.53;24.98;;;2.40;64.20;;;;;;5061957;28;20037;-79
2021/01/01 00:38:08;;;;;;;46.65;25.60;;;2.40;64.30;;;;;;5062356;28;20521;-78
2021/01/01 00:40:33;;;;;;;43.97;23.48;;;2.40;64.30;;;;;;5079911;28;20527;-78
2021/01/01 00:42:59;;;;;;;47.40;27.85;;;2.40;64.10;;;;;;5077634;28;20359;-78
2021/01/01 00:45:25;;;;;;;55.03;29.55;;;2.40;64.10;;;;;;5054496;28;20052;-79
2021/01/01 00:47:50;;;;;;;59.25;34.75;;;2.30;64.00;;;;;;5054393;28;20434;-79
2021/01/01 00:50:16;;;;;;;67.32;33.47;;;2.30;64.20;;;;;;5052813;28;20028;-79
2021/01/01 00:52:42;;;;;;;53.47;30.80;;;2.30;64.30;;;;;;5052753;28;20028;-79
2021/01/01 00:55:08;;;;;;;63.95;34.88;;;2.30;64.30;;;;;;5054248;28;20053;-79
2021/01/01 00:57:34;;;;;;;81.93;41.25;;;2.30;64.30;;;;;;5054253;28;20024;-79
2021/01/01 01:00:01;;;;;;;72.50;39.58;;;2.20;64.30;;;;;;5054596;28;20047;-79
2021/01/01 01:02:26;;;;;;;70.38;36.53;;;2.10;64.40;;;;;;5053335;28;20098;-79
2021/01/01 01:04:52;;;;;;;62.47;33.15;;;2.10;64.60;;;;;;5054213;28;20059;-79
2021/01/01 01:07:18;;;;;;;62.47;32.67;;;2.10;64.60;;;;;;5054229;28;20049;-79
2021/01/01 01:09:44;;;;;;;64.03;31.63;;;2.10;64.60;;;;;;5054106;28;20477;-79
2021/01/01 01:12:10;;;;;;;61.33;32.60;;;2.10;64.60;;;;;;5053904;28;20021;-79
2021/01/01 01:14:36;;;;;;;58.83;30.77;;;2.10;65.30;;;;;;5054002;28;20025;-79
2021/01/01 01:17:02;;;;;;;56.17;29.98;;;2.10;64.40;;;;;;5052859;28;20360;-79
2021/01/01 01:19:28;;;;;;;68.10;36.58;;;2.10;64.40;;;;;;5054064;28;20092;-79
2021/01/01 01:21:53;;;;;;;59.60;32.47;;;2.10;64.40;;;;;;5053496;28;20025;-79
2021/01/01 01:24:19;;;;;;;50.60;27.42;;;2.10;64.40;;;;;;5054142;28;20389;-78
2021/01/01 01:26:45;;;;;;;43.60;24.80;;;2.10;64.40;;;;;;5052368;28;20509;-78
2021/01/01 01:29:11;;;;;;;46.45;25.75;;;2.20;64.40;;;;;;5053536;28;20021;-78
2021/01/01 01:31:38;;;;;;;45.40;23.13;;;2.20;64.10;;;;;;5053568;28;20028;-78
2021/01/01 01:34:04;;;;;;;35.85;19.58;;;2.20;64.00;;;;;;5053607;28;20470;-78
2021/01/01 01:36:30;;;;;;;42.45;22.70;;;2.20;63.90;;;;;;5053482;28;20036;-79
2021/01/01 01:38:56;;;;;;;40.17;21.23;;;2.20;63.80;;;;;;5052800;28;20025;-79
2021/01/01 01:41:22;;;;;;;38.72;22.08;;;2.20;63.80;;;;;;5054546;28;20562;-79
2021/01/01 01:43:48;;;;;;;36.47;21.65;;;2.20;63.80;;;;;;5073736;28;20028;-79
2021/01/01 01:46:14;;;;;;;37.60;21.85;;;2.20;63.80;;;;;;5073525;28;20474;-78
2021/01/01 01:48:40;;;;;;;40.40;21.42;;;2.20;63.70;;;;;;5073619;28;20112;-78
2021/01/01 01:51:08;;;;;;;39.90;22.50;;;2.20;63.70;;;;;;5072046;28;20355;-78
2021/01/01 01:53:45;;;;;;;36.92;19.30;;;2.20;63.60;;;;;;5073366;28;20099;-78
2021/01/01 01:56:11;;;;;;;40.58;23.67;;;2.20;63.60;;;;;;5072174;28;20024;-78
2021/01/01 01:58:41;;;;;;;37.90;20.67;;;2.20;63.60;;;;;;5073269;28;20029;-79
2021/01/01 02:01:08;;;;;;;40.58;20.55;;;2.10;63.50;;;;;;5073560;28;20412;-78
2021/01/01 02:03:34;;;;;;;41.90;22.00;;;2.10;63.50;;;;;;5073266;28;20032;-77
2021/01/01 02:06:01;;;;;;;34.72;19.02;;;2.10;63.50;;;;;;5073231;28;20021;-78
2021/01/01 02:08:27;;;;;;;34.22;18.92;;;2.10;63.50;;;;;;5076330;28;20417;-78
2021/01/01 02:10:55;;;;;;;36.47;18.70;;;2.10;63.40;;;;;;5082469;28;20039;-78
2021/01/01 02:13:22;;;;;;;42.38;22.67;;;2.10;63.40;;;;;;5081498;28;20020;-77
2021/01/01 02:15:49;;;;;;;44.65;23.88;;;2.10;63.40;;;;;;5080274;28;20032;-78
2021/01/01 02:18:33;;;;;;;40.90;21.70;;;2.10;63.40;;;;;;5073914;28;20470;-78
2021/01/01 02:20:59;;;;;;;47.10;24.02;;;2.00;63.30;;;;;;5071876;28;20025;-78
2021/01/01 02:23:25;;;;;;;53.97;26.40;;;2.00;63.30;;;;;;5071823;28;20054;-78
2021/01/01 02:25:51;;;;;;;42.92;23.45;;;2.00;63.40;;;;;;5073347;28;20400;-77
2021/01/01 02:28:17;;;;;;;51.67;26.73;;;2.00;63.40;;;;;;5071889;28;20115;-77
2021/01/01 02:30:43;;;;;;;55.38;27.73;;;1.90;63.30;;;;;;5073185;28;20048;-78
2021/01/01 02:33:08;;;;;;;47.42;25.65;;;1.90;63.50;;;;;;5072956;28;20470;-78
2021/01/01 02:35:34;;;;;;;49.58;25.67;;;1.90;63.50;;;;;;5073224;28;20054;-77
2021/01/01 02:38:00;;;;;;;56.03;27.17;;;1.90;63.60;;;;;;5073272;28;20032;-78
2021/01/01 02:40:25;;;;;;;43.55;22.83;;;1.90;63.60;;;;;;5068195;28;20414;-77
2021/01/01 02:42:51;;;;;;;39.70;20.95;;;1.90;63.70;;;;;;5065404;28;20037;-77
2021/01/01 02:45:17;;;;;;;44.85;23.92;;;1.90;63.90;;;;;;5072959;28;20025;-78
2021/01/01 02:47:43;;;;;;;54.47;28.55;;;1.90;63.70;;;;;;5066135;28;20025;-78
2021/01/01 02:50:10;;;;;;;52.85;27.42;;;1.90;63.80;;;;;;5067098;28;20474;-78
2021/01/01 02:52:36;;;;;;;49.85;26.30;;;1.80;63.80;;;;;;5056980;28;20017;-77
2021/01/01 02:55:01;;;;;;;55.40;27.48;;;1.80;63.80;;;;;;5057049;28;20039;-77
2021/01/01 02:57:28;;;;;;;52.15;27.45;;;1.80;63.80;;;;;;5055417;28;20052;-78
2021/01/01 02:59:54;;;;;;;44.97;25.50;;;1.80;63.90;;;;;;5071879;28;20032;-77
2021/01/01 03:02:19;;;;;;;39.17;21.20;;;1.80;63.90;;;;;;5056865;28;20029;-78
2021/01/01 03:04:45;;;;;;;38.30;19.92;;;1.80;63.90;;;;;;5056441;28;20028;-78
2021/01/01 03:07:11;;;;;;;42.33;23.33;;;1.80;63.90;;;;;;5056369;28;20103;-78
2021/01/01 03:09:37;;;;;;;45.78;23.23;;;1.80;63.90;;;;;;5056477;28;20029;-77
2021/01/01 03:12:03;;;;;;;43.50;23.40;;;1.80;63.90;;;;;;5056336;28;20335;-77
2021/01/01 03:14:28;;;;;;;49.30;27.52;;;1.80;64.00;;;;;;5055062;28;20021;-78
2021/01/01 03:16:54;;;;;;;51.72;25.70;;;1.80;64.00;;;;;;5062090;28;20039;-78
2021/01/01 03:19:20;;;;;;;42.33;23.25;;;1.80;64.00;;;;;;5074564;28;20481;-78
2021/01/01 03:21:45;;;;;;;48.78;24.55;;;1.80;64.00;;;;;;5076140;28;20074;-77
2021/01/01 03:24:11;;;;;;;47.05;23.90;;;1.70;63.90;;;;;;5074699;28;20497;-79
2021/01/01 03:26:37;;;;;;;36.10;21.15;;;1.70;63.90;;;;;;5076208;28;20379;-79
2021/01/01 03:29:03;;;;;;;43.97;23.23;;;1.70;63.80;;;;;;5076024;28;20025;-79
2021/01/01 03:31:29;;;;;;;49.28;24.73;;;1.70;63.80;;;;;;5071759;28;20029;-78
2021/01/01 03:33:54;;;;;;;46.42;23.88;;;1.70;63.90;;;;;;5055839;28;20386;-79
2021/01/01 03:36:20;;;;;;;42.40;21.80;;;1.70;64.10;;;;;;5059374;28;20040;-78
2021/01/01 03:38:46;;;;;;;48.22;24.85;;;1.70;64.20;;;;;;5071285;28;20021;-78
2021/01/01 03:41:13;;;;;;;42.58;24.00;;;1.70;64.20;;;;;;5061035;28;20024;-79
2021/01/01 03:43:39;;;;;;;41.38;22.70;;;1.70;64.20;;;;;;5075777;28;20024;-78
2021/01/01 03:46:04;;;;;;;38.60;19.65;;;1.70;64.10;;;;;;5075621;28;20021;-78
2021/01/01 03:48:30;;;;;;;39.75;21.08;;;1.70;64.10;;;;;;5075548;28;20077;-78
2021/01/01 03:50:56;;;;;;;44.22;23.15;;;1.70;64.80;;;;;;5075863;28;20104;-78
2021/01/01 03:53:22;;;;;;;36.78;20.65;;;1.70;64.10;;;;;;5070416;28;20032;-78
2021/01/01 03:55:48;;;;;;;32.55;16.90;;;1.70;64.30;;;;;;5055514;28;20518;-79
2021/01/01 03:58:14;;;;;;;34.05;18.98;;;1.70;64.40;;;;;;5053973;28;20113;-79
2021/01/01 04:00:40;;;;;;;41.40;21.67;;;1.70;64.30;;;;;;5055283;28;20068;-78
2021/01/01 04:03:06;;;;;;;28.50;15.85;;;1.60;64.20;;;;;;5053310;28;20123;-78
2021/01/01 04:05:31;;;;;;;35.70;18.98;;;1.70;64.30;;;;;;5053975;28;20033;-78
2021/01/01 04:07:57;;;;;;;37.60;18.48;;;1.60;64.20;;;;;;5053913;28;20048;-78
2021/01/01 04:10:23;;;;;;;37.88;19.00;;;1.60;64.20;;;;;;5055217;28;20028;-77
2021/01/01 04:12:48;;;;;;;32.60;17.23;;;1.70;64.30;;;;;;5053862;28;20425;-78
2021/01/01 04:15:14;;;;;;;36.30;17.80;;;1.60;64.30;;;;;;5053739;28;20029;-78
2021/01/01 04:17:40;;;;;;;32.83;17.77;;;1.60;64.30;;;;;;5055003;28;20497;-78
2021/01/01 04:20:06;;;;;;;33.47;17.73;;;1.60;64.30;;;;;;5055269;28;20030;-77
2021/01/01 04:22:32;;;;;;;30.92;16.65;;;1.60;64.20;;;;;;5054609;28;20048;-78
2021/01/01 04:24:58;;;;;;;29.42;15.88;;;1.60;64.20;;;;;;5054870;28;20429;-79
2021/01/01 04:27:27;;;;;;;32.35;16.23;;;1.60;65.00;;;;;;5054849;28;20021;-79
2021/01/01 04:29:53;;;;;;;28.60;15.98;;;1.60;64.20;;;;;;5054661;28;20013;-79
2021/01/01 04:32:19;;;;;;;33.15;17.15;;;1.60;64.20;;;;;;5055459;28;20017;-79
2021/01/01 04:34:44;;;;;;;32.92;15.75;;;1.60;64.20;;;;;;5054814;28;20025;-77
2021/01/01 04:37:10;;;;;;;31.50;15.68;;;1.60;64.30;;;;;;5056062;28;20511;-78
2021/01/01 04:39:36;;;;;;;27.40;14.88;;;1.60;64.30;;;;;;5074912;28;20036;-78
2021/01/01 04:42:03;;;;;;;25.40;13.75;;;1.60;64.40;;;;;;5073255;28;20025;-78
2021/01/01 04:44:29;;;;;;;22.77;12.43;;;1.60;64.40;;;;;;5074338;28;20078;-78
2021/01/01 04:46:56;;;;;;;21.15;11.60;;;1.60;64.30;;;;;;5074515;28;20381;-78
2021/01/01 04:49:22;;;;;;;19.27;10.50;;;1.60;64.30;;;;;;5073136;28;20111;-79
2021/01/01 04:51:48;;;;;;;23.77;11.45;;;1.60;64.30;;;;;;5073012;28;20060;-79
2021/01/01 04:54:17;;;;;;;20.38;11.15;;;1.60;64.30;;;;;;5074387;28;20117;-78
2021/01/01 04:56:49;;;;;;;25.48;13.82;;;1.60;64.30;;;;;;5072847;28;20047;-78
2021/01/01 04:59:17;;;;;;;20.52;11.73;;;1.60;64.30;;;;;;5074080;28;20108;-78
2021/01/01 05:01:46;;;;;;;21.67;11.52;;;1.60;64.30;;;;;;5074128;28;20039;-77
2021/01/01 05:04:13;;;;;;;27.23;12.68;;;1.60;64.40;;;;;;5073995;28;20056;-78
2021/01/01 05:06:40;;;;;;;21.50;10.70;;;1.70;64.40;;;;;;5073969;28;20048;-79
2021/01/01 05:09:06;;;;;;;21.27;11.60;;;1.70;64.30;;;;;;5074030;28;20032;-78
2021/01/01 05:11:32;;;;;;;23.73;12.60;;;1.70;64.30;;;;;;5073987;28;20024;-77
2021/01/01 05:14:00;;;;;;;26.48;13.35;;;1.70;64.30;;;;;;5074113;28;20071;-78
2021/01/01 05:16:25;;;;;;;20.55;11.73;;;1.70;64.20;;;;;;5062868;28;20047;-78
2021/01/01 05:18:52;;;;;;;26.52;14.48;;;1.70;64.20;;;;;;5073800;28;20469;-78
2021/01/01 05:21:28;;;;;;;33.17;19.55;;;1.70;64.20;;;;;;5060075;28;20033;-77
2021/01/01 05:23:56;;;;;;;30.88;15.95;;;1.70;64.20;;;;;;5053728;28;20573;-78
2021/01/01 05:26:29;;;;;;;39.17;21.02;;;1.70;64.20;;;;;;5055676;28;20124;-78
2021/01/01 05:29:10;;;;;;;39.35;19.60;;;1.70;64.20;;;;;;5054442;28;20096;-78
2021/01/01 05:31:41;;;;;;;33.97;17.42;;;1.70;64.20;;;;;;5067512;28;20051;-78
2021/01/01 05:34:09;;;;;;;26.45;15.73;;;1.60;64.10;;;;;;5052458;28;20494;-78
2021/01/01 05:36:46;;;;;;;33.90;17.70;;;1.60;64.10;;;;;;5054578;28;20760;-78
2021/01/01 05:39:17;;;;;;;30.70;16.45;;;1.70;64.20;;;;;;5070208;28;20108;-77
2021/01/01 05:41:45;;;;;;;32.17;17.63;;;1.60;64.10;;;;;;5072229;28;20032;-77
2021/01/01 05:44:20;;;;;;;32.90;16.52;;;1.60;64.00;;;;;;5072779;28;20178;-77
2021/01/01 05:47:04;;;;;;;32.28;17.25;;;1.60;64.00;;;;;;5065652;28;20107;-77
2021/01/01 05:49:34;;;;;;;25.05;14.10;;;1.60;64.10;;;;;;5053718;28;20025;-77
2021/01/01 05:52:18;;;;;;;26.17;14.50;;;1.60;64.00;;;;;;5072827;28;20024;-77
2021/01/01 05:54:50;;;;;;;27.02;14.68;;;1.60;64.00;;;;;;5071836;28;20487;-77
2021/01/01 05:57:17;;;;;;;26.83;15.07;;;1.60;64.00;;;;;;5072286;28;20025;-77
2021/01/01 05:59:45;;;;;;;27.60;14.52;;;1.50;63.90;;;;;;5072278;28;20048;-77
2021/01/01 06:02:11;;;;;;;24.40;13.35;;;1.50;63.90;;;;;;5071627;28;20028;-78
2021/01/01 06:04:38;;;;;;;36.70;18.02;;;1.50;63.80;;;;;;5064559;28;20449;-78
2021/01/01 06:07:07;;;;;;;30.02;16.42;;;1.50;63.80;;;;;;5053527;28;20516;-78
2021/01/01 06:09:34;;;;;;;26.88;14.52;;;1.50;63.90;;;;;;5053224;28;20100;-78
2021/01/01 06:12:07;;;;;;;26.83;14.65;;;1.50;63.90;;;;;;5053021;28;20021;-78
2021/01/01 06:14:34;;;;;;;23.05;12.68;;;1.40;63.90;;;;;;5053134;28;20040;-78
2021/01/01 06:17:09;;;;;;;26.27;14.05;;;1.40;63.90;;;;;;5051962;28;20036;-77
2021/01/01 06:20:04;;;;;;;25.52;13.93;;;1.40;64.00;;;;;;5053124;28;20057;-78
2021/01/01 06:22:30;;;;;;;28.05;14.98;;;1.40;64.10;;;;;;5051365;28;20390;-77
2021/01/01 06:25:03;;;;;;;28.20;15.77;;;1.40;64.00;;;;;;5051796;28;20025;-78
2021/01/01 06:27:31;;;;;;;27.80;15.03;;;1.40;64.00;;;;;;5057216;28;20021;-78
2021/01/01 06:29:57;;;;;;;30.48;16.35;;;1.40;64.10;;;;;;5056837;28;20025;-78
2021/01/01 06:32:24;;;;;;;29.52;16.98;;;1.40;64.20;;;;;;5056782;28;20467;-78
2021/01/01 06:34:51;;;;;;;28.35;16.52;;;1.40;65.00;;;;;;5056873;28;20021;-78
2021/01/01 06:37:37;;;;;;;27.08;15.43;;;1.40;64.30;;;;;;5066436;28;20055;-78
2021/01/01 06:40:26;;;;;;;26.80;15.93;;;1.40;64.30;;;;;;5076978;28;20107;-79
2021/01/01 06:43:15;;;;;;;37.10;19.73;;;1.40;64.40;;;;;;5063359;28;20485;-78
2021/01/01 06:45:45;;;;;;;33.10;16.58;;;1.50;64.50;;;;;;5056690;28;20091;-77
2021/01/01 06:48:20;;;;;;;31.88;17.92;;;1.50;64.50;;;;;;5056731;28;20103;-77
2021/01/01 06:50:50;;;;;;;26.73;15.13;;;1.50;64.60;;;;;;5056736;28;20029;-78
2021/01/01 06:53:17;;;;;;;31.42;15.52;;;1.50;64.60;;;;;;5056576;28;20049;-77
2021/01/01 06:55:46;;;;;;;30.70;15.55;;;1.60;64.80;;;;;;5056666;28;20490;-78
2021/01/01 06:58:13;;;;;;;30.98;16.23;;;1.60;64.80;;;;;;5056667;28;20110;-78
2021/01/01 07:00:45;;;;;;;27.05;15.13;;;1.60;64.80;;;;;;5056530;28;20029;-77
2021/01/01 07:03:28;;;;;;;28.33;14.60;;;1.70;64.80;;;;;;5056171;28;20032;-77
2021/01/01 07:06:01;;;;;;;30.33;16.08;;;1.70;64.80;;;;;;5056251;28;20500;-78
2021/01/01 07:08:42;;;;;;;34.70;18.13;;;1.80;64.70;;;;;;5056369;28;20048;-78
2021/01/01 07:11:07;;;;;;;30.73;17.42;;;1.80;64.60;;;;;;5055026;28;20044;-78
2021/01/01 07:13:43;;;;;;;27.92;14.90;;;1.80;64.40;;;;;;5054820;28;20052;-78
2021/01/01 07:16:10;;;;;;;25.00;13.20;;;1.90;64.40;;;;;;5056281;28;20048;-77
2021/01/01 07:18:36;;;;;;;24.52;12.70;;;1.90;64.30;;;;;;5056225;28;20359;-78
2021/01/01 07:21:10;;;;;;;28.95;13.32;;;1.90;64.30;;;;;;5056049;28;20062;-78
2021/01/01 07:23:36;;;;;;;21.73;11.32;;;1.90;64.20;;;;;;5054667;28;20076;-78
2021/01/01 07:26:03;;;;;;;27.38;13.70;;;1.90;64.10;;;;;;5054633;28;20033;-78
2021/01/01 07:28:29;;;;;;;24.30;13.23;;;1.90;64.20;;;;;;5057539;28;20490;-77
2021/01/01 07:30:55;;;;;;;19.55;11.43;;;2.00;64.20;;;;;;5056029;28;20021;-77
2021/01/01 07:33:23;;;;;;;28.33;14.40;;;2.00;64.20;;;;;;5055851;28;20021;-78
2021/01/01 07:35:56;;;;;;;26.25;15.23;;;2.00;64.20;;;;;;5054432;28;20032;-78
2021/01/01 07:38:23;;;;;;;31.10;16.83;;;2.00;64.30;;;;;;5054855;28;20482;-78
2021/01/01 07:40:49;;;;;;;32.22;16.55;;;2.00;64.50;;;;;;5055912;28;20036;-77
2021/01/01 07:43:16;;;;;;;33.50;18.58;;;2.10;64.70;;;;;;5070988;28;20478;-78
2021/01/01 07:45:42;;;;;;;29.58;17.08;;;2.10;64.70;;;;;;5055674;28;20033;-78
2021/01/01 07:48:09;;;;;;;27.13;15.20;;;2.10;64.60;;;;;;5055649;28;20094;-78
2021/01/01 07:50:36;;;;;;;29.70;16.52;;;2.10;64.50;;;;;;5055441;28;20021;-78
2021/01/01 07:53:12;;;;;;;26.73;15.88;;;2.10;64.40;;;;;;5054255;28;20021;-77
2021/01/01 07:55:39;;;;;;;30.80;17.85;;;2.20;64.40;;;;;;5054260;28;20029;-78
2021/01/01 07:58:11;;;;;;;29.80;17.30;;;2.20;64.60;;;;;;5055183;28;20596;-78
2021/01/01 08:00:39;;;;;;;24.52;14.30;;;2.20;64.30;;;;;;5070569;28;20123;-78
2021/01/01 08:03:08;;;;;;;29.15;16.25;;;2.20;64.40;;;;;;5075103;28;20025;-78
2021/01/01 08:05:34;;;;;;;34.85;17.15;;;2.30;64.50;;;;;;5075458;28;20059;-78
2021/01/01 08:08:16;;;;;;;30.55;16.98;;;2.30;64.50;;;;;;5075299;28;20021;-78
2021/01/01 08:10:44;;;;;;;31.52;18.88;;;2.30;64.40;;;;;;5058118;28;20056;-77
2021/01/01 08:13:30;;;;;;;33.03;18.55;;;2.40;64.50;;;;;;5055181;28;20494;-77
2021/01/01 08:15:57;;;;;;;32.60;18.77;;;2.40;64.30;;;;;;5055052;28;20041;-78
2021/01/01 08:18:25;;;;;;;29.33;16.27;;;2.40;64.20;;;;;;5055071;28;20024;-77
2021/01/01 08:21:04;;;;;;;32.85;18.05;;;2.40;64.20;;;;;;5053475;28;20501;-78
2021/01/01 08:23:42;;;;;;;25.63;15.45;;;2.40;64.00;;;;;;5054729;28;20540;-77
2021/01/01 08:26:08;;;;;;;29.00;16.92;;;2.50;64.00;;;;;;5054859;28;20025;-78
2021/01/01 08:28:36;;;;;;;39.20;20.58;;;2.50;64.00;;;;;;5057984;28;20412;-78
2021/01/01 08:31:03;;;;;;;35.63;17.90;;;2.50;63.20;;;;;;5073935;28;20477;-79
2021/01/01 08:33:36;;;;;;;32.92;17.92;;;2.40;63.60;;;;;;5057134;28;20052;-79
2021/01/01 08:36:04;;;;;;;29.25;16.23;;;2.50;63.70;;;;;;5053275;28;20029;-79
2021/01/01 08:38:30;;;;;;;31.75;18.63;;;2.50;63.70;;;;;;5053354;28;20413;-78
2021/01/01 08:40:58;;;;;;;35.70;17.67;;;2.50;63.80;;;;;;5054331;28;20032;-79
2021/01/01 08:43:25;;;;;;;35.60;19.20;;;2.50;63.90;;;;;;5053312;28;20120;-78
2021/01/01 08:45:51;;;;;;;33.60;17.42;;;2.50;63.90;;;;;;5053090;28;20032;-79
2021/01/01 08:48:18;;;;;;;26.23;15.63;;;2.50;63.90;;;;;;5053911;28;20021;-78
2021/01/01 08:50:47;;;;;;;36.17;19.50;;;2.50;64.00;;;;;;5052924;28;20094;-77
2021/01/01 08:53:14;;;;;;;32.03;19.65;;;2.60;64.00;;;;;;5054233;28;20424;-77
2021/01/01 08:55:40;;;;;;;30.50;18.63;;;2.50;63.70;;;;;;5055334;28;20028;-77
2021/01/01 08:58:13;;;;;;;31.33;18.25;;;2.60;63.80;;;;;;5069466;28;20048;-77
2021/01/01 09:00:46;;;;;;;34.03;19.15;;;2.50;63.50;;;;;;5052869;28;20036;-78
2021/01/01 09:03:13;;;;;;;33.33;18.27;;;2.50;63.50;;;;;;5054230;28;20410;-77
2021/01/01 09:05:39;;;;;;;31.30;17.58;;;2.60;63.70;;;;;;5053881;28;20021;-78
2021/01/01 09:08:20;;;;;;;33.10;17.83;;;2.60;63.70;;;;;;5054203;28;20084;-78
2021/01/01 09:10:49;;;;;;;29.30;17.15;;;2.60;63.60;;;;;;5053983;28;20025;-77
2021/01/01 09:13:22;;;;;;;24.40;14.90;;;2.70;63.80;;;;;;5052521;28;20025;-78
2021/01/01 09:16:09;;;;;;;22.90;13.27;;;2.70;63.90;;;;;;5053891;28;20052;-77
2021/01/01 09:18:35;;;;;;;28.73;16.33;;;2.80;64.30;;;;;;5052625;28;20028;-78
2021/01/01 09:21:15;;;;;;;34.88;16.70;;;2.90;64.30;;;;;;5053914;28;20028;-77
2021/01/01 09:23:42;;;;;;;29.85;17.83;;;2.90;64.00;;;;;;5053650;28;20072;-77
2021/01/01 09:26:08;;;;;;;30.05;17.58;;;3.00;63.70;;;;;;5053816;28;20025;-77
2021/01/01 09:28:36;;;;;;;25.27;14.73;;;3.10;63.40;;;;;;5054604;28;20072;-79
2021/01/01 09:31:02;;;;;;;27.13;16.00;;;3.20;63.40;;;;;;5053525;28;20023;-79
2021/01/01 09:33:28;;;;;;;23.23;14.00;;;3.20;63.30;;;;;;5053789;28;20036;-78
2021/01/01 09:35:54;;;;;;;20.98;12.80;;;3.30;63.40;;;;;;5052416;28;20107;-78
2021/01/01 09:38:20;;;;;;;20.65;12.55;;;3.40;63.30;;;;;;5053692;28;20029;-78
2021/01/01 09:40:46;;;;;;;21.70;12.45;;;3.50;63.00;;;;;;5053794;28;20505;-78
2021/01/01 09:43:11;;;;;;;19.88;11.88;;;3.60;62.90;;;;;;5053691;28;20029;-78
2021/01/01 09:45:38;;;;;;;17.40;10.50;;;3.70;62.80;;;;;;5053387;28;20457;-78
2021/01/01 09:48:04;;;;;;;16.05;8.98;;;3.80;62.60;;;;;;5052175;28;20360;-78
2021/01/01 09:50:31;;;;;;;19.73;10.60;;;4.00;62.50;;;;;;5053542;28;20061;-78
2021/01/01 09:52:56;;;;;;;19.83;11.57;;;4.10;62.70;;;;;;5068847;28;20441;-78
2021/01/01 09:55:22;;;;;;;20.08;10.98;;;4.20;62.40;;;;;;5068848;28;20064;-78
2021/01/01 09:57:48;;;;;;;15.95;9.35;;;4.40;62.00;;;;;;5052179;28;20394;-78
2021/01/01 10:00:17;;;;;;;15.55;9.43;;;4.50;61.90;;;;;;5052587;28;20028;-79
2021/01/01 10:02:44;;;;;;;17.40;11.13;;;4.60;61.90;;;;;;5053322;28;20040;-79
2021/01/01 10:05:11;;;;;;;17.55;11.23;;;4.70;61.50;;;;;;5053458;28;20029;-79
2021/01/01 10:07:37;;;;;;;21.42;13.05;;;4.80;61.40;;;;;;5053264;28;20017;-79
2021/01/01 10:10:04;;;;;;;20.00;11.93;;;4.90;61.00;;;;;;5068830;28;20029;-79
2021/01/01 10:12:30;;;;;;;21.17;12.52;;;4.90;60.80;;;;;;5068618;28;20017;-79
2021/01/01 10:15:00;;;;;;;16.63;10.75;;;5.00;60.50;;;;;;5053433;28;20484;-79
2021/01/01 10:17:29;;;;;;;15.18;10.25;;;5.10;60.50;;;;;;5053342;28;20024;-79
2021/01/01 10:19:56;;;;;;;26.08;13.88;;;5.10;60.50;;;;;;5051664;28;20025;-79
2021/01/01 10:22:22;;;;;;;22.80;12.50;;;5.20;60.20;;;;;;5051775;28;20107;-79
2021/01/01 10:24:48;;;;;;;21.40;13.07;;;5.30;60.00;;;;;;5053366;28;20028;-79
2021/01/01 10:27:15;;;;;;;20.50;12.82;;;5.30;59.90;;;;;;5053630;28;20025;-79
2021/01/01 10:29:41;;;;;;;30.33;15.15;;;5.40;59.90;;;;;;5053131;28;20029;-79
2021/01/01 10:32:13;;;;;;;28.27;15.50;;;5.40;59.80;;;;;;5052368;28;20021;-78
2021/01/01 10:34:44;;;;;;;22.77;13.18;;;5.50;59.70;;;;;;5053829;28;20020;-80
2021/01/01 10:37:11;;;;;;;25.65;13.98;;;5.60;59.80;;;;;;5053162;28;20021;-80
2021/01/01 10:39:37;;;;;;;19.98;11.85;;;5.70;59.70;;;;;;5053013;28;20105;-78
2021/01/01 10:42:04;;;;;;;21.60;12.02;;;5.70;59.60;;;;;;5052998;28;20021;-79
2021/01/01 10:44:30;;;;;;;20.95;13.00;;;5.80;59.80;;;;;;5053435;28;20413;-79
2021/01/01 10:46:57;;;;;;;23.17;13.73;;;5.90;59.70;;;;;;5052780;28;20523;-80
2021/01/01 10:49:24;;;;;;;26.88;15.00;;;6.00;59.60;;;;;;5051532;28;20036;-79
2021/01/01 10:51:50;;;;;;;27.02;15.57;;;6.10;59.60;;;;;;5053048;28;20055;-78
2021/01/01 10:54:16;;;;;;;27.88;16.73;;;6.20;59.50;;;;;;5052805;28;20367;-79
2021/01/01 10:56:45;;;;;;;26.85;15.25;;;6.40;59.40;;;;;;5054728;28;20029;-77
2021/01/01 10:59:11;;;;;;;30.88;17.13;;;6.40;59.20;;;;;;5071263;28;20024;-79
2021/01/01 11:01:37;;;;;;;33.63;18.13;;;6.50;58.70;;;;;;5071553;28;20036;-80
2021/01/01 11:04:02;;;;;;;30.63;18.15;;;6.60;58.40;;;;;;5055296;28;20088;-80
2021/01/01 11:06:28;;;;;;;25.98;15.82;;;6.70;58.30;;;;;;5051689;28;20468;-78
2021/01/01 11:08:54;;;;;;;25.58;15.80;;;6.70;58.30;;;;;;5051512;28;20469;-79
2021/01/01 11:11:23;;;;;;;28.58;15.30;;;6.80;58.40;;;;;;5055953;28;20067;-78
2021/01/01 11:14:01;;;;;;;28.15;16.58;;;6.90;58.30;;;;;;5062798;28;20059;-79
2021/01/01 12:25:17;;;;;;;34.22;21.23;;;6.20;57.70;;;;;;5055016;28;19913;-78
2021/01/01 12:27:45;;;;;;;36.05;21.08;;;6.20;57.40;;;;;;5053629;28;20025;-78
2021/01/01 12:30:11;;;;;;;37.30;21.38;;;6.20;57.40;;;;;;5058393;28;20090;-79
2021/01/01 12:32:39;;;;;;;40.38;21.92;;;6.20;57.40;;;;;;5072840;28;20075;-77
2021/01/01 12:35:08;;;;;;;34.83;22.08;;;6.20;58.00;;;;;;5069497;28;20023;-79
2021/01/01 12:37:34;;;;;;;29.92;18.13;;;6.20;57.40;;;;;;5054655;28;20025;-78
2021/01/01 12:40:00;;;;;;;26.15;16.13;;;6.20;57.50;;;;;;5071647;28;20508;-79
2021/01/01 12:42:26;;;;;;;33.00;18.80;;;6.30;57.60;;;;;;5074636;28;20032;-79
2021/01/01 12:44:52;;;;;;;32.63;18.25;;;6.20;57.40;;;;;;5073777;28;20470;-78
2021/01/01 12:47:18;;;;;;;30.13;17.98;;;6.20;57.30;;;;;;5069142;28;20485;-77
2021/01/01 12:49:47;;;;;;;26.85;16.63;;;6.30;57.20;;;;;;5053454;28;20040;-79
2021/01/01 12:52:12;;;;;;;27.38;16.70;;;6.30;57.30;;;;;;5073195;28;20151;-79
2021/01/01 12:54:39;;;;;;;27.98;17.38;;;6.30;57.10;;;;;;5065632;28;20049;-78
2021/01/01 12:57:05;;;;;;;27.70;16.92;;;6.30;57.00;;;;;;5057301;28;20056;-80
2021/01/01 12:59:31;;;;;;;25.20;16.20;;;6.40;57.10;;;;;;5074427;28;20059;-78
2021/01/01 13:01:57;;;;;;;28.25;16.77;;;6.40;57.20;;;;;;5071533;28;20020;-78
2021/01/01 13:04:23;;;;;;;29.80;17.65;;;6.40;57.10;;;;;;5073506;28;20036;-79
2021/01/01 13:06:48;;;;;;;34.10;18.55;;;6.40;57.20;;;;;;5072420;28;20029;-79
2021/01/01 13:09:14;;;;;;;29.70;16.27;;;6.40;57.00;;;;;;5076011;28;20092;-79
2021/01/01 13:11:44;;;;;;;29.23;16.20;;;6.50;57.10;;;;;;5077355;28;20080;-80
2021/01/01 13:14:10;;;;;;;26.33;16.02;;;6.50;57.20;;;;;;5068159;28;20024;-80
2021/01/01 13:16:36;;;;;;;30.35;18.25;;;6.50;57.20;;;;;;5073150;28;20427;-80
2021/01/01 13:19:01;;;;;;;33.67;19.48;;;6.50;57.20;;;;;;5072939;28;20440;-80
2021/01/01 13:21:32;;;;;;;42.03;20.40;;;6.50;57.10;;;;;;5065711;28;20036;-79
2021/01/01 13:23:59;;;;;;;36.55;21.38;;;6.50;57.10;;;;;;5066574;28;20044;-79
2021/01/01 13:26:26;;;;;;;36.90;20.85;;;6.50;57.20;;;;;;5061829;28;20104;-80
2021/01/01 13:28:53;;;;;;;41.30;21.73;;;6.50;57.30;;;;;;5054229;28;20025;-80
2021/01/01 13:31:20;;;;;;;46.00;23.90;;;6.50;57.30;;;;;;5071521;28;20097;-81
2021/01/01 13:33:47;;;;;;;43.13;22.58;;;6.50;57.30;;;;;;5071623;28;20032;-81
2021/01/01 13:36:15;;;;;;;39.97;22.23;;;6.50;57.20;;;;;;5059216;28;20143;-79
2021/01/01 13:38:41;;;;;;;37.42;21.73;;;6.50;57.20;;;;;;5052817;28;20021;-80
2021/01/01 13:41:10;;;;;;;38.95;21.75;;;6.50;57.30;;;;;;5053786;28;20474;-79
2021/01/01 13:43:41;;;;;;;41.90;21.02;;;6.40;57.30;;;;;;5072689;28;20036;-79
2021/01/01 13:46:08;;;;;;;46.75;26.17;;;6.40;57.40;;;;;;5071328;28;20048;-79
2021/01/01 13:48:37;;;;;;;54.85;29.73;;;6.40;57.40;;;;;;5070469;28;20446;-79
2021/01/01 13:51:03;;;;;;;45.17;24.30;;;6.40;57.30;;;;;;5072599;28;20380;-79